createdAt,value
2018-12-02T00:00:29.948Z,3.43
2018-12-02T00:02:58.834Z,3.43
2018-12-02T00:05:27.829Z,3.40
2018-12-02T00:07:56.276Z,3.40
2018-12-02T00:10:25.339Z,3.60
2018-12-02T00:12:53.788Z,3.20
2018-12-02T00:15:24.211Z,3.50
2018-12-02T00:17:54.000Z,2.97
2018-12-02T00:20:22.493Z,3.10
2018-12-02T00:22:50.986Z,3.33
2018-12-02T00:25:20.156Z,3.43
2018-12-02T00:27:49.890Z,3.33
2018-12-02T00:30:19.752Z,3.43
2018-12-02T00:32:48.348Z,3.20
2018-12-02T00:35:19.695Z,3.07
2018-12-02T00:37:49.163Z,3.30
2018-12-02T00:40:18.566Z,3.60
2018-12-02T00:42:49.195Z,3.30
2018-12-02T00:45:18.664Z,2.70
2018-12-02T00:47:47.240Z,3.50
2018-12-02T00:50:16.585Z,2.93
2018-12-02T00:52:46.181Z,2.80
2018-12-02T00:55:23.573Z,2.83
2018-12-02T00:57:51.930Z,3.03
2018-12-02T01:00:20.363Z,3.93
2018-12-02T01:02:49.606Z,3.27
2018-12-02T01:05:19.013Z,3.30
2018-12-02T01:07:47.470Z,3.07
2018-12-02T01:10:17.394Z,2.83
2018-12-02T01:12:46.460Z,2.77
2018-12-02T01:15:17.834Z,2.10
2018-12-02T01:17:46.671Z,2.70
2018-12-02T01:20:17.124Z,2.03
2018-12-02T01:22:46.532Z,2.57
2018-12-02T01:25:15.325Z,1.70
2018-12-02T01:27:44.494Z,1.53
2018-12-02T01:30:17.780Z,1.47
2018-12-02T01:32:46.188Z,1.60
2018-12-02T01:35:15.680Z,2.03
2018-12-02T01:37:44.226Z,1.60
2018-12-02T01:40:14.451Z,1.77
2018-12-02T01:42:42.879Z,1.90
2018-12-02T01:45:17.172Z,1.70
2018-12-02T01:47:45.589Z,2.17
2018-12-02T01:50:16.942Z,1.47
2018-12-02T01:52:47.422Z,1.50
2018-12-02T01:55:15.926Z,1.83
2018-12-02T01:57:44.798Z,1.90
2018-12-02T02:00:19.312Z,1.60
2018-12-02T02:02:48.081Z,2.13
2018-12-02T02:05:18.660Z,1.17
2018-12-02T02:07:47.524Z,1.37
2018-12-02T02:10:20.294Z,1.50
2018-12-02T02:12:48.711Z,1.67
2018-12-02T02:15:17.958Z,1.63
2018-12-02T02:17:46.989Z,1.60
2018-12-02T02:20:20.046Z,1.10
2018-12-02T02:22:48.507Z,1.60
2018-12-02T02:25:17.814Z,1.23
2018-12-02T02:27:47.500Z,1.53
2018-12-02T02:30:20.315Z,1.30
2018-12-02T02:32:48.728Z,1.60
2018-12-02T02:35:18.458Z,1.40
2018-12-02T02:37:47.121Z,1.57
2018-12-02T02:40:16.617Z,1.40
2018-12-02T02:42:44.996Z,1.40
2018-12-02T02:45:14.052Z,1.50
2018-12-02T02:47:42.428Z,1.70
2018-12-02T02:50:18.536Z,1.53
2018-12-02T02:52:53.600Z,1.60
2018-12-02T02:55:22.072Z,1.47
2018-12-02T02:57:50.451Z,1.70
2018-12-02T03:00:19.995Z,1.30
2018-12-02T03:02:48.375Z,1.40
2018-12-02T03:05:17.297Z,1.47
2018-12-02T03:07:45.685Z,1.03
2018-12-02T03:10:15.848Z,1.20
2018-12-02T03:12:46.181Z,1.40
2018-12-02T03:15:16.526Z,1.20
2018-12-02T03:17:45.059Z,1.47
2018-12-02T03:20:17.170Z,1.30
2018-12-02T03:22:49.736Z,1.20
2018-12-02T03:25:19.795Z,1.40
2018-12-02T03:27:48.158Z,1.03
2018-12-02T03:30:19.449Z,1.20
2018-12-02T03:32:47.950Z,1.30
2018-12-02T03:35:20.494Z,1.40
2018-12-02T03:37:48.877Z,1.30
2018-12-02T03:40:20.387Z,1.30
2018-12-02T03:42:49.292Z,1.20
2018-12-02T03:45:18.567Z,1.53
2018-12-02T03:47:46.948Z,1.17
2018-12-02T03:50:17.603Z,1.43
2018-12-02T03:52:44.715Z,1.10
2018-12-02T03:55:13.092Z,1.17
2018-12-02T03:57:41.724Z,1.00
2018-12-02T04:00:16.197Z,1.30
2018-12-02T04:02:44.565Z,1.10
2018-12-02T04:05:15.058Z,1.60
2018-12-02T04:07:43.441Z,1.17
2018-12-02T04:10:13.834Z,1.40
2018-12-02T04:12:42.267Z,1.60
2018-12-02T04:15:11.712Z,1.47
2018-12-02T04:17:40.089Z,1.50
2018-12-02T04:20:11.435Z,1.33
2018-12-02T04:22:39.872Z,1.47
2018-12-02T04:25:10.653Z,1.43
2018-12-02T04:27:39.003Z,1.40
2018-12-02T04:30:18.302Z,1.60
2018-12-02T04:32:47.552Z,1.50
2018-12-02T04:35:20.951Z,1.33
2018-12-02T04:37:49.294Z,1.50
2018-12-02T04:40:17.767Z,1.70
2018-12-02T04:42:46.104Z,1.70
2018-12-02T04:45:15.615Z,1.40
2018-12-02T04:47:44.053Z,1.40
2018-12-02T04:50:15.313Z,1.27
2018-12-02T04:52:43.702Z,1.40
2018-12-02T04:55:12.135Z,1.60
2018-12-02T04:57:40.509Z,1.50
2018-12-02T05:00:14.288Z,1.30
2018-12-02T05:02:49.420Z,1.33
2018-12-02T05:05:22.898Z,1.60
2018-12-02T05:07:51.384Z,1.50
2018-12-02T05:10:20.660Z,1.50
2018-12-02T05:12:49.796Z,1.80
2018-12-02T05:15:18.902Z,1.37
2018-12-02T05:17:47.271Z,1.27
2018-12-02T05:20:18.186Z,1.50
2018-12-02T05:22:46.659Z,1.13
2018-12-02T05:25:17.991Z,1.60
2018-12-02T05:27:44.288Z,1.23
2018-12-02T05:30:15.635Z,1.50
2018-12-02T05:32:44.735Z,1.20
2018-12-02T05:35:13.905Z,1.40
2018-12-02T05:37:42.294Z,1.30
2018-12-02T05:40:16.551Z,1.50
2018-12-02T05:42:45.119Z,1.67
2018-12-02T05:45:14.770Z,1.23
2018-12-02T05:47:43.585Z,1.40
2018-12-02T05:50:13.296Z,1.40
2018-12-02T05:52:41.677Z,1.20
2018-12-02T05:55:11.405Z,1.33
2018-12-02T05:57:39.789Z,1.50
2018-12-02T06:00:10.556Z,1.40
2018-12-02T06:02:39.472Z,1.73
2018-12-02T06:05:08.621Z,1.40
2018-12-02T06:07:37.089Z,1.43
2018-12-02T06:10:09.229Z,3.73
2018-12-02T06:12:37.684Z,1.80
2018-12-02T06:15:08.499Z,1.53
2018-12-02T06:17:36.972Z,1.67
2018-12-02T06:20:09.305Z,2.10
2018-12-02T06:22:37.886Z,1.50
2018-12-02T06:25:07.630Z,1.73
2018-12-02T06:27:36.170Z,1.67
2018-12-02T06:30:09.779Z,1.40
2018-12-02T06:32:38.225Z,1.60
2018-12-02T06:35:08.622Z,1.80
2018-12-02T06:37:37.025Z,1.53
2018-12-02T06:40:10.491Z,2.00
2018-12-02T06:42:38.893Z,1.40
2018-12-02T06:45:08.472Z,1.13
2018-12-02T06:47:37.214Z,1.40
2018-12-02T06:50:08.258Z,1.43
2018-12-02T06:52:36.682Z,1.50
2018-12-02T06:55:06.930Z,1.30
2018-12-02T06:57:35.579Z,1.23
2018-12-02T07:00:11.417Z,1.30
2018-12-02T07:03:01.385Z,1.50
2018-12-02T07:05:33.810Z,1.60
2018-12-02T07:08:02.345Z,1.40
2018-12-02T07:10:30.751Z,1.67
2018-12-02T07:12:59.162Z,1.60
2018-12-02T07:15:28.689Z,1.50
2018-12-02T07:17:57.936Z,1.70
2018-12-02T07:20:26.365Z,1.47
2018-12-02T07:22:55.477Z,1.60
2018-12-02T07:25:23.900Z,1.63
2018-12-02T07:27:52.269Z,1.73
2018-12-02T07:30:25.047Z,1.50
2018-12-02T07:32:49.144Z,1.60
2018-12-02T07:35:17.592Z,1.40
2018-12-02T07:37:49.682Z,1.70
2018-12-02T07:40:23.551Z,2.87
2018-12-02T07:42:52.207Z,1.93
2018-12-02T07:45:20.931Z,1.77
2018-12-02T07:47:49.372Z,1.60
2018-12-02T07:50:17.806Z,1.77
2018-12-02T07:52:46.256Z,1.80
2018-12-02T07:55:14.696Z,1.73
2018-12-02T07:57:43.144Z,2.03
2018-12-02T08:00:13.844Z,1.60
2018-12-02T08:02:42.411Z,1.80
2018-12-02T08:05:12.598Z,1.57
2018-12-02T08:07:41.528Z,1.80
2018-12-02T08:10:13.386Z,1.60
2018-12-02T08:12:42.098Z,1.60
2018-12-02T08:15:13.851Z,1.57
2018-12-02T08:17:42.360Z,1.70
2018-12-02T08:20:12.606Z,1.73
2018-12-02T08:22:41.453Z,1.77
2018-12-02T08:25:12.952Z,1.10
2018-12-02T08:27:41.963Z,1.87
2018-12-02T08:30:15.581Z,1.20
2018-12-02T08:32:44.008Z,1.50
2018-12-02T08:35:13.875Z,2.00
2018-12-02T08:37:43.766Z,1.33
2018-12-02T08:40:13.041Z,1.20
2018-12-02T08:42:42.109Z,1.30
2018-12-02T08:45:13.107Z,1.13
2018-12-02T08:47:42.432Z,1.20
2018-12-02T08:50:13.033Z,1.00
2018-12-02T08:52:41.511Z,1.20
2018-12-02T08:55:11.242Z,0.90
2018-12-02T08:57:39.691Z,1.07
2018-12-02T09:00:15.671Z,1.00
2018-12-02T09:02:45.646Z,1.10
2018-12-02T09:05:14.658Z,1.03
2018-12-02T09:07:44.009Z,0.97
2018-12-02T09:10:15.132Z,1.00
2018-12-02T09:12:43.756Z,0.70
2018-12-02T09:15:12.208Z,0.80
2018-12-02T09:17:40.625Z,0.93
2018-12-02T09:20:12.714Z,0.83
2018-12-02T09:22:41.202Z,1.10
2018-12-02T09:25:09.734Z,0.87
2018-12-02T09:27:38.171Z,0.70
2018-12-02T09:30:13.878Z,0.87
2018-12-02T09:32:42.669Z,1.10
2018-12-02T09:35:11.536Z,0.80
2018-12-02T09:37:40.074Z,0.90
2018-12-02T09:40:13.628Z,0.70
2018-12-02T09:42:46.721Z,0.77
2018-12-02T09:45:16.415Z,0.80
2018-12-02T09:47:44.866Z,1.07
2018-12-02T09:50:14.430Z,0.80
2018-12-02T09:52:42.938Z,1.00
2018-12-02T09:55:15.656Z,1.00
2018-12-02T09:57:44.169Z,1.00
2018-12-02T10:00:16.994Z,1.00
2018-12-02T10:02:45.545Z,1.40
2018-12-02T10:05:13.974Z,1.30
2018-12-02T10:07:42.576Z,1.10
2018-12-02T10:10:13.422Z,1.30
2018-12-02T10:12:54.459Z,1.40
2018-12-02T10:15:22.891Z,1.27
2018-12-02T10:17:51.336Z,0.90
2018-12-02T10:20:19.797Z,1.23
2018-12-02T10:22:48.242Z,1.40
2018-12-02T10:25:17.709Z,1.00
2018-12-02T10:27:46.444Z,1.27
2018-12-02T10:30:22.706Z,1.30
2018-12-02T10:32:52.023Z,1.13
2018-12-02T10:35:20.448Z,0.90
2018-12-02T10:37:49.245Z,1.10
2018-12-02T10:40:20.610Z,1.30
2018-12-02T10:42:49.085Z,5.80
2018-12-02T10:45:22.501Z,10.63
2018-12-02T10:47:52.386Z,10.30
2018-12-02T10:50:31.736Z,14.47
2018-12-02T10:53:01.504Z,13.33
2018-12-02T10:55:33.160Z,13.10
2018-12-02T10:58:01.616Z,10.20
2018-12-02T11:00:35.399Z,5.50
2018-12-02T11:03:03.891Z,3.53
2018-12-02T11:05:32.345Z,1.30
2018-12-02T11:08:00.779Z,1.30
2018-12-02T11:10:29.211Z,2.10
2018-12-02T11:12:57.743Z,2.67
2018-12-02T11:15:26.230Z,2.43
2018-12-02T11:17:54.617Z,1.80
2018-12-02T11:20:23.118Z,1.03
2018-12-02T11:22:51.610Z,1.03
2018-12-02T11:25:20.021Z,1.33
2018-12-02T11:27:48.528Z,0.97
2018-12-02T11:30:17.898Z,1.10
2018-12-02T11:32:47.472Z,1.07
2018-12-02T11:35:17.853Z,1.03
2018-12-02T11:37:46.976Z,1.17
2018-12-02T11:40:17.062Z,1.00
2018-12-02T11:42:45.838Z,0.90
2018-12-02T11:45:15.626Z,1.10
2018-12-02T11:47:47.277Z,1.27
2018-12-02T11:50:16.909Z,0.90
2018-12-02T11:52:45.369Z,1.00
2018-12-02T11:55:14.896Z,1.20
2018-12-02T11:57:43.345Z,1.20
2018-12-02T12:00:17.300Z,1.33
2018-12-02T12:02:45.759Z,1.10
2018-12-02T12:05:14.220Z,1.60
2018-12-02T12:07:44.013Z,1.70
2018-12-02T12:10:14.707Z,1.50
2018-12-02T12:12:43.121Z,1.13
2018-12-02T12:15:12.937Z,1.20
2018-12-02T12:17:41.445Z,1.27
2018-12-02T12:20:13.611Z,1.40
2018-12-02T12:22:42.165Z,1.00
2018-12-02T12:25:10.768Z,1.20
2018-12-02T12:27:39.538Z,1.30
2018-12-02T12:30:14.081Z,1.30
2018-12-02T12:32:43.139Z,1.60
2018-12-02T12:35:12.859Z,1.37
2018-12-02T12:37:41.468Z,1.40
2018-12-02T12:40:15.605Z,1.17
2018-12-02T12:42:47.464Z,1.03
2018-12-02T12:45:16.781Z,1.10
2018-12-02T12:47:45.910Z,1.13
2018-12-02T12:50:15.238Z,1.07
2018-12-02T12:52:43.695Z,1.23
2018-12-02T12:55:13.109Z,1.50
2018-12-02T12:57:41.525Z,1.33
2018-12-02T13:00:12.400Z,1.47
2018-12-02T13:02:40.804Z,1.70
2018-12-02T13:05:11.208Z,1.03
2018-12-02T13:07:42.581Z,1.30
2018-12-02T13:10:13.116Z,0.90
2018-12-02T13:12:41.806Z,1.20
2018-12-02T13:15:16.205Z,1.40
2018-12-02T13:17:49.432Z,1.10
2018-12-02T13:20:18.640Z,1.23
2018-12-02T13:22:47.054Z,1.07
2018-12-02T13:25:16.080Z,1.30
2018-12-02T13:27:45.948Z,1.20
2018-12-02T13:30:18.501Z,1.20
2018-12-02T13:32:48.195Z,1.17
2018-12-02T13:35:16.656Z,1.40
2018-12-02T13:37:45.100Z,1.23
2018-12-02T13:40:15.192Z,1.17
2018-12-02T13:42:45.145Z,1.40
2018-12-02T13:45:15.080Z,1.77
2018-12-02T13:47:43.550Z,1.47
2018-12-02T13:50:13.596Z,1.27
2018-12-02T13:52:42.044Z,1.33
2018-12-02T13:55:12.858Z,1.33
2018-12-02T13:57:41.355Z,1.20
2018-12-02T14:00:13.384Z,2.20
2018-12-02T14:02:42.395Z,1.43
2018-12-02T14:05:10.906Z,1.27
2018-12-02T14:07:39.495Z,1.70
2018-12-02T14:10:09.879Z,1.07
2018-12-02T14:12:38.776Z,1.10
2018-12-02T14:15:20.648Z,1.27
2018-12-02T14:17:50.777Z,0.97
2018-12-02T14:20:19.315Z,1.10
2018-12-02T14:22:47.799Z,1.00
2018-12-02T14:25:16.262Z,1.00
2018-12-02T14:27:46.528Z,0.90
2018-12-02T14:30:16.600Z,0.70
2018-12-02T14:32:46.068Z,0.93
2018-12-02T14:35:14.490Z,1.00
2018-12-02T14:37:42.986Z,0.77
2018-12-02T14:40:12.768Z,0.50
2018-12-02T14:42:42.409Z,1.13
2018-12-02T14:45:12.330Z,0.70
2018-12-02T14:47:40.754Z,0.70
2018-12-02T14:50:13.506Z,0.83
2018-12-02T14:52:42.118Z,0.90
2018-12-02T14:55:12.136Z,0.80
2018-12-02T14:57:40.585Z,1.10
2018-12-02T15:00:16.599Z,0.90
2018-12-02T15:02:45.256Z,0.90
2018-12-02T15:05:14.705Z,0.70
2018-12-02T15:07:44.270Z,1.10
2018-12-02T15:10:14.916Z,0.73
2018-12-02T15:12:44.079Z,1.23
2018-12-02T15:15:13.780Z,1.20
2018-12-02T15:17:42.573Z,0.90
2018-12-02T15:20:13.426Z,0.90
2018-12-02T15:22:41.900Z,0.90
2018-12-02T15:25:11.929Z,1.00
2018-12-02T15:27:40.861Z,1.70
2018-12-02T15:30:13.817Z,3.40
2018-12-02T15:32:44.471Z,5.03
2018-12-02T15:35:12.941Z,6.57
2018-12-02T15:37:41.409Z,4.30
2018-12-02T15:40:11.681Z,6.40
2018-12-02T15:42:41.591Z,7.43
2018-12-02T15:45:11.528Z,10.13
2018-12-02T15:47:40.768Z,9.90
2018-12-02T15:50:11.242Z,10.77
2018-12-02T15:52:39.955Z,9.53
2018-12-02T15:55:10.782Z,11.87
2018-12-02T15:57:39.289Z,7.80
2018-12-02T16:00:20.954Z,4.40
2018-12-02T16:02:49.415Z,4.83
2018-12-02T16:05:17.955Z,3.93
2018-12-02T16:07:46.488Z,3.10
2018-12-02T16:10:15.866Z,2.17
2018-12-02T16:12:46.517Z,1.80
2018-12-02T16:15:16.633Z,1.47
2018-12-02T16:17:52.045Z,1.40
2018-12-02T16:20:29.620Z,9.50
2018-12-02T16:22:58.238Z,16.63
2018-12-02T16:25:26.684Z,11.53
2018-12-02T16:27:55.196Z,10.90
2018-12-02T16:30:23.834Z,15.30
2018-12-02T16:32:54.837Z,15.63
2018-12-02T16:35:24.618Z,11.40
2018-12-02T16:37:55.293Z,8.40
2018-12-02T16:40:24.953Z,13.10
2018-12-02T16:42:54.549Z,14.33
2018-12-02T16:45:23.419Z,13.63
2018-12-02T16:47:55.077Z,17.63
2018-12-02T16:50:31.082Z,13.17
2018-12-02T16:53:04.281Z,21.83
2018-12-02T16:55:38.557Z,19.27
2018-12-02T16:58:30.611Z,12.70
2018-12-02T17:01:17.891Z,12.37
2018-12-02T17:03:46.649Z,8.73
2018-12-02T17:06:15.176Z,11.60
2018-12-02T17:08:43.743Z,16.73
2018-12-02T17:11:13.190Z,18.40
2018-12-02T17:13:40.792Z,22.33
2018-12-02T17:16:09.355Z,18.43
2018-12-02T17:18:44.492Z,18.93
2018-12-02T17:21:12.965Z,24.57
2018-12-02T17:26:18.768Z,18.10
2018-12-02T17:28:47.235Z,15.77
2018-12-02T17:31:21.828Z,16.87
2018-12-02T17:33:50.367Z,12.40
2018-12-02T17:36:18.800Z,11.93
2018-12-02T17:38:48.697Z,14.10
2018-12-02T17:41:17.214Z,16.20
2018-12-02T17:43:45.662Z,18.60
2018-12-02T17:46:14.118Z,21.60
2018-12-02T17:48:42.594Z,22.17
2018-12-02T17:51:11.061Z,23.80
2018-12-02T17:53:41.021Z,21.67
2018-12-02T17:56:09.522Z,22.27
2018-12-02T17:58:37.957Z,33.47
2018-12-02T18:01:07.296Z,26.00
2018-12-02T18:03:36.051Z,25.27
2018-12-02T18:06:05.271Z,12.70
2018-12-02T18:08:33.968Z,12.07
2018-12-02T18:11:02.708Z,6.40
2018-12-02T18:13:31.250Z,7.47
2018-12-02T18:15:59.733Z,10.70
2018-12-02T18:18:28.418Z,9.27
2018-12-02T18:20:56.883Z,8.60
2018-12-02T18:23:25.450Z,6.67
2018-12-02T18:25:53.918Z,6.53
2018-12-02T18:28:22.330Z,9.73
2018-12-02T18:30:50.877Z,12.07
2018-12-02T18:33:19.426Z,12.80
2018-12-02T18:36:03.288Z,9.70
2018-12-02T18:38:34.549Z,10.90
2018-12-02T18:41:20.577Z,10.63
2018-12-02T18:43:49.014Z,9.20
2018-12-02T18:46:18.184Z,10.70
2018-12-02T18:48:46.767Z,7.40
2018-12-02T18:51:15.532Z,4.17
2018-12-02T18:53:43.996Z,2.20
2018-12-02T18:56:16.563Z,2.00
2018-12-02T18:58:41.204Z,2.50
2018-12-02T19:01:09.665Z,1.93
2018-12-02T19:03:38.318Z,1.90
2018-12-02T19:06:07.406Z,2.37
2018-12-02T19:08:46.678Z,2.60
2018-12-02T19:11:15.177Z,2.37
2018-12-02T19:13:43.975Z,2.30
2018-12-02T19:16:12.316Z,2.67
2018-12-02T19:18:41.637Z,2.77
2018-12-02T19:21:19.623Z,2.90
2018-12-02T19:23:48.108Z,2.33
2018-12-02T19:26:16.571Z,2.90
2018-12-02T19:28:44.982Z,2.43
2018-12-02T19:31:13.427Z,2.13
2018-12-02T19:33:42.132Z,2.97
2018-12-02T19:36:16.099Z,2.83
2018-12-02T19:38:44.521Z,3.53
2018-12-02T19:41:12.962Z,3.10
2018-12-02T19:43:41.410Z,3.07
2018-12-02T19:46:09.904Z,3.10
2018-12-02T19:48:38.414Z,2.80
2018-12-02T19:51:06.926Z,2.80
2018-12-02T19:53:35.307Z,2.80
2018-12-02T19:56:03.806Z,2.87
2018-12-02T19:58:32.249Z,2.33
2018-12-02T20:01:01.005Z,3.00
2018-12-02T20:03:30.038Z,3.00
2018-12-02T20:06:00.280Z,2.80
2018-12-02T20:08:29.297Z,4.47
2018-12-02T20:10:58.476Z,5.33
2018-12-02T20:13:27.441Z,3.97
2018-12-02T20:16:02.528Z,4.17
2018-12-02T20:18:31.631Z,3.47
2018-12-02T20:21:01.443Z,4.53
2018-12-02T20:23:35.988Z,2.33
2018-12-02T20:26:06.062Z,2.87
2018-12-02T20:28:38.565Z,2.70
2018-12-02T20:31:13.058Z,2.90
2018-12-02T20:33:42.106Z,2.70
2018-12-02T20:36:10.604Z,2.30
2018-12-02T20:38:39.181Z,3.00
2018-12-02T20:41:07.698Z,2.13
2018-12-02T20:43:36.130Z,2.10
2018-12-02T20:46:04.590Z,2.00
2018-12-02T20:48:32.992Z,2.30
2018-12-02T20:51:01.450Z,2.77
2018-12-02T20:53:29.854Z,2.70
2018-12-02T20:55:58.308Z,2.40
2018-12-02T20:58:26.721Z,2.33
2018-12-02T21:00:55.221Z,5.10
2018-12-02T21:03:26.789Z,2.83
2018-12-02T21:06:06.395Z,3.20
2018-12-02T21:08:35.295Z,2.53
2018-12-02T21:11:03.680Z,2.23
2018-12-02T21:13:32.125Z,2.73
2018-12-02T21:16:01.347Z,2.93
2018-12-02T21:18:29.806Z,2.80
2018-12-02T21:20:58.204Z,3.30
2018-12-02T21:23:26.659Z,2.90
2018-12-02T21:25:55.093Z,3.37
2018-12-02T21:28:25.265Z,3.37
2018-12-02T21:30:53.878Z,2.83
2018-12-02T21:33:22.312Z,3.07
2018-12-02T21:35:51.757Z,2.60
2018-12-02T21:38:20.182Z,3.20
2018-12-02T21:40:48.760Z,3.67
2018-12-02T21:43:17.271Z,3.33
2018-12-02T21:45:45.781Z,3.00
2018-12-02T21:48:17.152Z,3.30
2018-12-02T21:50:47.655Z,3.47
2018-12-02T21:53:16.055Z,3.10
2018-12-02T21:55:44.609Z,3.20
2018-12-02T21:58:13.065Z,4.00
2018-12-02T22:00:44.616Z,3.60
2018-12-02T22:03:14.228Z,3.70
2018-12-02T22:05:43.027Z,3.80
2018-12-02T22:08:11.406Z,3.93
2018-12-02T22:10:39.864Z,4.00
2018-12-02T22:13:08.750Z,6.50
2018-12-02T22:15:37.307Z,5.37
2018-12-02T22:18:06.469Z,4.20
2018-12-02T22:20:34.868Z,3.90
2018-12-02T22:23:03.261Z,3.10
2018-12-02T22:25:32.285Z,3.40
2018-12-02T22:28:00.694Z,3.00
2018-12-02T22:30:29.041Z,2.67
2018-12-02T22:32:57.409Z,2.73
2018-12-02T22:35:25.797Z,2.60
2018-12-02T22:37:54.553Z,2.40
2018-12-02T22:40:24.921Z,2.43
2018-12-02T22:42:54.134Z,2.30
2018-12-02T22:45:23.769Z,2.60
2018-12-02T22:47:52.213Z,2.63
2018-12-02T22:50:21.447Z,2.60
2018-12-02T22:52:51.001Z,2.93
2018-12-02T22:55:19.457Z,2.60
2018-12-02T22:57:47.812Z,2.20
2018-12-02T23:00:28.751Z,2.67
2018-12-02T23:03:02.551Z,2.10
2018-12-02T23:05:31.012Z,2.40
2018-12-02T23:07:59.438Z,2.30
2018-12-02T23:10:27.861Z,2.20
2018-12-02T23:12:56.224Z,2.40
2018-12-02T23:15:24.594Z,2.13
2018-12-02T23:17:52.988Z,2.00
2018-12-02T23:20:21.400Z,1.80
2018-12-02T23:22:49.786Z,1.67
2018-12-02T23:25:18.155Z,1.60
2018-12-02T23:27:46.579Z,1.90
2018-12-02T23:30:19.918Z,2.00
2018-12-02T23:32:48.507Z,1.80
2018-12-02T23:35:16.899Z,1.70
2018-12-02T23:37:45.283Z,1.60
2018-12-02T23:40:14.856Z,2.00
2018-12-02T23:42:43.277Z,1.73
2018-12-02T23:45:12.547Z,1.87
2018-12-02T23:47:41.239Z,1.47
2018-12-02T23:50:11.409Z,1.53
2018-12-02T23:52:40.561Z,1.37
2018-12-02T23:55:10.223Z,1.40
2018-12-02T23:57:38.678Z,1.40
